sensor_id;sensor_type;location;lat;lon;timestamp;pressure;altitude;pressure_sealevel;temperature;humidity
62952;BME280;52163;52.212;-1.002;2022-07-17T00:01:27;101493.73;;;16.94;59.61
62952;BME280;52163;52.212;-1.002;2022-07-17T00:03:53;101496.80;;;16.94;59.68
62952;BME280;52163;52.212;-1.002;2022-07-17T00:06:18;101496.60;;;16.94;59.83
62952;BME280;52163;52.212;-1.002;2022-07-17T00:08:43;101497.69;;;16.96;59.69
62952;BME280;52163;52.212;-1.002;2022-07-17T00:11:09;101499.10;;;16.99;59.59
62952;BME280;52163;52.212;-1.002;2022-07-17T00:13:35;101498.25;;;17.01;59.29
62952;BME280;52163;52.212;-1.002;2022-07-17T00:16:00;101499.06;;;17.02;58.91
62952;BME280;52163;52.212;-1.002;2022-07-17T00:18:26;101503.52;;;17.02;58.59
62952;BME280;52163;52.212;-1.002;2022-07-17T00:20:51;101504.95;;;17.00;58.16
62952;BME280;52163;52.212;-1.002;2022-07-17T00:23:17;101503.36;;;16.96;58.26
62952;BME280;52163;52.212;-1.002;2022-07-17T00:25:44;101502.18;;;16.93;58.60
62952;BME280;52163;52.212;-1.002;2022-07-17T00:28:09;101501.70;;;16.90;58.54
62952;BME280;52163;52.212;-1.002;2022-07-17T00:30:35;101498.70;;;16.87;58.62
62952;BME280;52163;52.212;-1.002;2022-07-17T00:33:00;101497.09;;;16.84;58.69
62952;BME280;52163;52.212;-1.002;2022-07-17T00:35:26;101495.88;;;16.83;58.34
62952;BME280;52163;52.212;-1.002;2022-07-17T00:37:51;101495.39;;;16.86;58.45
62952;BME280;52163;52.212;-1.002;2022-07-17T00:40:23;101503.83;;;16.88;58.41
62952;BME280;52163;52.212;-1.002;2022-07-17T00:42:49;101502.79;;;16.90;58.32
62952;BME280;52163;52.212;-1.002;2022-07-17T00:45:15;101504.23;;;16.92;58.44
62952;BME280;52163;52.212;-1.002;2022-07-17T00:48:04;101501.54;;;16.95;58.32
62952;BME280;52163;52.212;-1.002;2022-07-17T00:50:34;101500.75;;;16.96;58.64
62952;BME280;52163;52.212;-1.002;2022-07-17T00:53:00;101495.98;;;16.95;59.19
62952;BME280;52163;52.212;-1.002;2022-07-17T00:55:27;101495.41;;;16.93;59.09
62952;BME280;52163;52.212;-1.002;2022-07-17T00:57:54;101492.48;;;16.94;59.26
62952;BME280;52163;52.212;-1.002;2022-07-17T01:00:21;101493.84;;;16.95;59.75
62952;BME280;52163;52.212;-1.002;2022-07-17T01:02:49;101493.21;;;16.96;60.08
62952;BME280;52163;52.212;-1.002;2022-07-17T01:05:16;101492.42;;;16.97;60.15
62952;BME280;52163;52.212;-1.002;2022-07-17T01:07:42;101494.27;;;16.99;60.33
62952;BME280;52163;52.212;-1.002;2022-07-17T01:10:09;101489.36;;;17.01;60.63
62952;BME280;52163;52.212;-1.002;2022-07-17T01:12:35;101490.39;;;17.04;60.87
62952;BME280;52163;52.212;-1.002;2022-07-17T01:15:01;101496.07;;;17.06;60.88
62952;BME280;52163;52.212;-1.002;2022-07-17T01:17:27;101500.81;;;17.10;60.43
62952;BME280;52163;52.212;-1.002;2022-07-17T01:19:53;101506.48;;;17.13;60.11
62952;BME280;52163;52.212;-1.002;2022-07-17T01:22:19;101506.81;;;17.16;59.99
62952;BME280;52163;52.212;-1.002;2022-07-17T01:24:45;101506.32;;;17.18;60.15
62952;BME280;52163;52.212;-1.002;2022-07-17T01:27:11;101500.27;;;17.18;60.69
62952;BME280;52163;52.212;-1.002;2022-07-17T01:29:38;101493.84;;;17.18;61.18
62952;BME280;52163;52.212;-1.002;2022-07-17T01:32:04;101488.55;;;17.19;61.48
62952;BME280;52163;52.212;-1.002;2022-07-17T01:34:30;101487.54;;;17.21;61.81
62952;BME280;52163;52.212;-1.002;2022-07-17T01:36:56;101484.86;;;17.23;61.92
62952;BME280;52163;52.212;-1.002;2022-07-17T01:39:22;101479.23;;;17.25;62.08
62952;BME280;52163;52.212;-1.002;2022-07-17T01:42:08;101475.31;;;17.27;62.19
62952;BME280;52163;52.212;-1.002;2022-07-17T01:44:34;101477.48;;;17.26;62.32
62952;BME280;52163;52.212;-1.002;2022-07-17T01:47:00;101475.64;;;17.27;62.46
62952;BME280;52163;52.212;-1.002;2022-07-17T01:49:25;101472.73;;;17.28;62.54
62952;BME280;52163;52.212;-1.002;2022-07-17T01:51:51;101475.45;;;17.30;62.46
62952;BME280;52163;52.212;-1.002;2022-07-17T01:54:16;101475.87;;;17.34;62.47
62952;BME280;52163;52.212;-1.002;2022-07-17T01:56:42;101472.11;;;17.39;62.65
62952;BME280;52163;52.212;-1.002;2022-07-17T01:59:08;101474.35;;;17.45;62.84
62952;BME280;52163;52.212;-1.002;2022-07-17T02:01:33;101474.96;;;17.51;62.89
62952;BME280;52163;52.212;-1.002;2022-07-17T02:03:58;101474.68;;;17.57;62.79
62952;BME280;52163;52.212;-1.002;2022-07-17T02:06:24;101472.28;;;17.61;62.95
62952;BME280;52163;52.212;-1.002;2022-07-17T02:08:49;101469.61;;;17.63;62.88
62952;BME280;52163;52.212;-1.002;2022-07-17T02:11:17;101469.45;;;17.65;62.92
62952;BME280;52163;52.212;-1.002;2022-07-17T02:13:42;101473.23;;;17.67;63.08
62952;BME280;52163;52.212;-1.002;2022-07-17T02:16:08;101470.42;;;17.67;63.40
62952;BME280;52163;52.212;-1.002;2022-07-17T02:18:34;101471.84;;;17.64;63.66
62952;BME280;52163;52.212;-1.002;2022-07-17T02:21:00;101476.08;;;17.63;64.00
62952;BME280;52163;52.212;-1.002;2022-07-17T02:23:25;101475.63;;;17.62;64.11
62952;BME280;52163;52.212;-1.002;2022-07-17T02:25:51;101474.45;;;17.61;64.33
62952;BME280;52163;52.212;-1.002;2022-07-17T02:28:16;101481.14;;;17.62;64.54
62952;BME280;52163;52.212;-1.002;2022-07-17T02:30:41;101480.19;;;17.65;64.37
62952;BME280;52163;52.212;-1.002;2022-07-17T02:33:07;101482.57;;;17.69;64.22
62952;BME280;52163;52.212;-1.002;2022-07-17T02:35:33;101481.76;;;17.73;64.11
62952;BME280;52163;52.212;-1.002;2022-07-17T02:37:59;101485.22;;;17.77;63.74
62952;BME280;52163;52.212;-1.002;2022-07-17T02:40:25;101486.69;;;17.77;63.74
62952;BME280;52163;52.212;-1.002;2022-07-17T02:42:50;101486.85;;;17.77;63.74
62952;BME280;52163;52.212;-1.002;2022-07-17T02:45:16;101490.70;;;17.73;63.79
62952;BME280;52163;52.212;-1.002;2022-07-17T02:47:43;101496.63;;;17.70;64.07
62952;BME280;52163;52.212;-1.002;2022-07-17T02:50:09;101495.38;;;17.67;64.11
62952;BME280;52163;52.212;-1.002;2022-07-17T02:52:35;101492.85;;;17.63;64.40
62952;BME280;52163;52.212;-1.002;2022-07-17T02:55:02;101491.89;;;17.59;64.45
62952;BME280;52163;52.212;-1.002;2022-07-17T02:57:27;101490.32;;;17.56;64.67
62952;BME280;52163;52.212;-1.002;2022-07-17T02:59:52;101488.66;;;17.54;64.62
62952;BME280;52163;52.212;-1.002;2022-07-17T03:02:18;101484.44;;;17.53;64.42
62952;BME280;52163;52.212;-1.002;2022-07-17T03:04:43;101483.38;;;17.53;64.36
62952;BME280;52163;52.212;-1.002;2022-07-17T03:07:09;101481.80;;;17.55;64.17
62952;BME280;52163;52.212;-1.002;2022-07-17T03:09:34;101481.65;;;17.57;64.24
62952;BME280;52163;52.212;-1.002;2022-07-17T03:12:00;101479.41;;;17.59;64.28
62952;BME280;52163;52.212;-1.002;2022-07-17T03:14:25;101479.46;;;17.56;64.34
62952;BME280;52163;52.212;-1.002;2022-07-17T03:16:51;101480.66;;;17.54;64.47
62952;BME280;52163;52.212;-1.002;2022-07-17T03:19:16;101480.19;;;17.51;64.44
62952;BME280;52163;52.212;-1.002;2022-07-17T03:21:42;101484.92;;;17.47;64.72
62952;BME280;52163;52.212;-1.002;2022-07-17T03:24:07;101487.73;;;17.43;64.81
62952;BME280;52163;52.212;-1.002;2022-07-17T03:26:33;101491.77;;;17.39;64.77
62952;BME280;52163;52.212;-1.002;2022-07-17T03:28:58;101489.73;;;17.35;64.91
62952;BME280;52163;52.212;-1.002;2022-07-17T03:31:24;101492.15;;;17.31;65.02
62952;BME280;52163;52.212;-1.002;2022-07-17T03:33:49;101485.91;;;17.29;65.29
62952;BME280;52163;52.212;-1.002;2022-07-17T03:36:15;101478.01;;;17.29;65.39
62952;BME280;52163;52.212;-1.002;2022-07-17T03:38:40;101473.59;;;17.31;65.47
62952;BME280;52163;52.212;-1.002;2022-07-17T03:41:05;101468.81;;;17.35;65.65
62952;BME280;52163;52.212;-1.002;2022-07-17T03:43:31;101465.30;;;17.42;65.71
62952;BME280;52163;52.212;-1.002;2022-07-17T03:45:56;101465.27;;;17.50;65.54
62952;BME280;52163;52.212;-1.002;2022-07-17T03:48:21;101463.77;;;17.55;65.38
62952;BME280;52163;52.212;-1.002;2022-07-17T03:50:47;101467.06;;;17.59;65.32
62952;BME280;52163;52.212;-1.002;2022-07-17T03:53:12;101460.74;;;17.60;65.26
62952;BME280;52163;52.212;-1.002;2022-07-17T03:55:37;101459.25;;;17.61;65.22
62952;BME280;52163;52.212;-1.002;2022-07-17T03:58:03;101466.38;;;17.59;65.17
62952;BME280;52163;52.212;-1.002;2022-07-17T04:00:28;101479.10;;;17.56;65.28
62952;BME280;52163;52.212;-1.002;2022-07-17T04:02:54;101474.48;;;17.53;65.24
62952;BME280;52163;52.212;-1.002;2022-07-17T04:05:20;101474.95;;;17.49;65.29
62952;BME280;52163;52.212;-1.002;2022-07-17T04:07:45;101473.94;;;17.48;65.46
62952;BME280;52163;52.212;-1.002;2022-07-17T04:10:14;101471.78;;;17.44;65.56
62952;BME280;52163;52.212;-1.002;2022-07-17T04:12:41;101480.35;;;17.41;65.70
62952;BME280;52163;52.212;-1.002;2022-07-17T04:15:08;101485.01;;;17.41;65.68
62952;BME280;52163;52.212;-1.002;2022-07-17T04:17:34;101479.35;;;17.43;65.74
62952;BME280;52163;52.212;-1.002;2022-07-17T04:19:59;101480.09;;;17.40;65.75
62952;BME280;52163;52.212;-1.002;2022-07-17T04:22:25;101479.06;;;17.37;65.96
62952;BME280;52163;52.212;-1.002;2022-07-17T04:24:51;101480.33;;;17.34;66.04
62952;BME280;52163;52.212;-1.002;2022-07-17T04:27:17;101483.19;;;17.32;65.99
62952;BME280;52163;52.212;-1.002;2022-07-17T04:29:43;101490.33;;;17.29;66.15
62952;BME280;52163;52.212;-1.002;2022-07-17T04:32:09;101491.63;;;17.26;66.13
62952;BME280;52163;52.212;-1.002;2022-07-17T04:34:35;101488.02;;;17.24;66.22
62952;BME280;52163;52.212;-1.002;2022-07-17T04:37:02;101488.33;;;17.22;66.28
62952;BME280;52163;52.212;-1.002;2022-07-17T04:39:28;101490.11;;;17.22;66.57
62952;BME280;52163;52.212;-1.002;2022-07-17T04:41:55;101488.85;;;17.25;66.56
62952;BME280;52163;52.212;-1.002;2022-07-17T04:44:20;101485.30;;;17.27;66.64
62952;BME280;52163;52.212;-1.002;2022-07-17T04:46:46;101488.12;;;17.30;66.59
62952;BME280;52163;52.212;-1.002;2022-07-17T04:49:12;101492.37;;;17.33;66.46
62952;BME280;52163;52.212;-1.002;2022-07-17T04:51:37;101490.80;;;17.35;66.49
62952;BME280;52163;52.212;-1.002;2022-07-17T04:54:03;101490.42;;;17.35;66.46
62952;BME280;52163;52.212;-1.002;2022-07-17T04:56:29;101488.46;;;17.38;66.41
62952;BME280;52163;52.212;-1.002;2022-07-17T04:58:54;101488.71;;;17.41;66.26
62952;BME280;52163;52.212;-1.002;2022-07-17T05:01:19;101481.04;;;17.44;66.21
62952;BME280;52163;52.212;-1.002;2022-07-17T05:03:45;101482.92;;;17.48;66.20
62952;BME280;52163;52.212;-1.002;2022-07-17T05:06:10;101483.25;;;17.50;66.28
62952;BME280;52163;52.212;-1.002;2022-07-17T05:08:36;101478.52;;;17.54;66.14
62952;BME280;52163;52.212;-1.002;2022-07-17T05:11:02;101479.85;;;17.58;66.09
62952;BME280;52163;52.212;-1.002;2022-07-17T05:13:27;101476.73;;;17.64;65.92
62952;BME280;52163;52.212;-1.002;2022-07-17T05:15:52;101475.71;;;17.70;65.74
62952;BME280;52163;52.212;-1.002;2022-07-17T05:18:18;101473.09;;;17.77;65.53
62952;BME280;52163;52.212;-1.002;2022-07-17T05:20:43;101473.97;;;17.79;65.60
62952;BME280;52163;52.212;-1.002;2022-07-17T05:23:09;101472.91;;;17.83;65.40
62952;BME280;52163;52.212;-1.002;2022-07-17T05:25:34;101473.19;;;17.94;65.21
62952;BME280;52163;52.212;-1.002;2022-07-17T05:28:00;101475.06;;;18.00;65.08
62952;BME280;52163;52.212;-1.002;2022-07-17T05:30:27;101470.71;;;18.06;64.86
62952;BME280;52163;52.212;-1.002;2022-07-17T05:32:53;101466.23;;;18.11;64.66
62952;BME280;52163;52.212;-1.002;2022-07-17T05:35:18;101469.61;;;18.13;64.55
62952;BME280;52163;52.212;-1.002;2022-07-17T05:37:43;101468.73;;;18.20;64.52
62952;BME280;52163;52.212;-1.002;2022-07-17T05:40:09;101468.98;;;18.40;64.47
62952;BME280;52163;52.212;-1.002;2022-07-17T05:42:34;101472.94;;;18.74;64.07
62952;BME280;52163;52.212;-1.002;2022-07-17T05:45:00;101477.84;;;19.09;63.51
62952;BME280;52163;52.212;-1.002;2022-07-17T05:47:25;101477.90;;;19.44;63.09
62952;BME280;52163;52.212;-1.002;2022-07-17T05:49:51;101479.36;;;19.87;62.23
62952;BME280;52163;52.212;-1.002;2022-07-17T05:52:16;101477.73;;;20.34;61.07
62952;BME280;52163;52.212;-1.002;2022-07-17T05:54:42;101479.70;;;20.71;59.90
62952;BME280;52163;52.212;-1.002;2022-07-17T05:57:07;101484.27;;;20.91;59.04
62952;BME280;52163;52.212;-1.002;2022-07-17T05:59:33;101485.98;;;21.12;58.40
62952;BME280;52163;52.212;-1.002;2022-07-17T06:01:59;101489.06;;;21.24;57.54
62952;BME280;52163;52.212;-1.002;2022-07-17T06:04:25;101491.88;;;21.27;57.27
62952;BME280;52163;52.212;-1.002;2022-07-17T06:06:50;101496.38;;;21.28;56.80
62952;BME280;52163;52.212;-1.002;2022-07-17T06:09:17;101496.52;;;21.39;56.58
62952;BME280;52163;52.212;-1.002;2022-07-17T06:11:43;101496.42;;;21.43;56.17
62952;BME280;52163;52.212;-1.002;2022-07-17T06:14:08;101499.31;;;21.43;55.96
62952;BME280;52163;52.212;-1.002;2022-07-17T06:16:33;101499.60;;;21.42;55.88
62952;BME280;52163;52.212;-1.002;2022-07-17T06:18:59;101491.21;;;21.40;55.81
62952;BME280;52163;52.212;-1.002;2022-07-17T06:21:24;101495.02;;;21.38;55.65
62952;BME280;52163;52.212;-1.002;2022-07-17T06:23:50;101490.66;;;21.36;55.43
62952;BME280;52163;52.212;-1.002;2022-07-17T06:26:15;101487.88;;;21.29;55.22
62952;BME280;52163;52.212;-1.002;2022-07-17T06:28:40;101487.11;;;21.29;54.89
62952;BME280;52163;52.212;-1.002;2022-07-17T06:31:06;101486.07;;;21.35;54.76
62952;BME280;52163;52.212;-1.002;2022-07-17T06:33:31;101490.53;;;21.45;54.55
62952;BME280;52163;52.212;-1.002;2022-07-17T06:35:57;101490.77;;;21.59;54.28
62952;BME280;52163;52.212;-1.002;2022-07-17T06:38:22;101493.95;;;21.75;53.99
62952;BME280;52163;52.212;-1.002;2022-07-17T06:40:47;101496.48;;;21.93;53.62
62952;BME280;52163;52.212;-1.002;2022-07-17T06:43:13;101496.63;;;22.07;53.50
62952;BME280;52163;52.212;-1.002;2022-07-17T06:45:38;101499.11;;;22.17;52.97
62952;BME280;52163;52.212;-1.002;2022-07-17T06:48:04;101504.29;;;22.21;52.57
62952;BME280;52163;52.212;-1.002;2022-07-17T06:50:30;101507.27;;;22.25;52.41
62952;BME280;52163;52.212;-1.002;2022-07-17T06:52:55;101510.55;;;22.35;52.36
62952;BME280;52163;52.212;-1.002;2022-07-17T06:55:21;101510.31;;;22.39;51.69
62952;BME280;52163;52.212;-1.002;2022-07-17T06:57:46;101503.73;;;22.44;51.11
62952;BME280;52163;52.212;-1.002;2022-07-17T07:00:12;101499.74;;;22.58;50.33
62952;BME280;52163;52.212;-1.002;2022-07-17T07:02:38;101495.47;;;22.72;49.96
62952;BME280;52163;52.212;-1.002;2022-07-17T07:05:04;101500.83;;;22.88;49.61
62952;BME280;52163;52.212;-1.002;2022-07-17T07:07:30;101496.27;;;22.96;49.12
62952;BME280;52163;52.212;-1.002;2022-07-17T07:09:55;101496.92;;;22.97;49.04
62952;BME280;52163;52.212;-1.002;2022-07-17T07:12:21;101502.83;;;22.93;48.88
62952;BME280;52163;52.212;-1.002;2022-07-17T07:14:46;101500.90;;;22.87;48.68
62952;BME280;52163;52.212;-1.002;2022-07-17T07:17:11;101502.45;;;22.80;48.71
62952;BME280;52163;52.212;-1.002;2022-07-17T07:19:37;101502.15;;;22.78;48.91
62952;BME280;52163;52.212;-1.002;2022-07-17T07:22:02;101508.60;;;22.80;48.99
62952;BME280;52163;52.212;-1.002;2022-07-17T07:24:28;101509.00;;;22.85;48.87
62952;BME280;52163;52.212;-1.002;2022-07-17T07:26:53;101510.48;;;22.90;48.82
62952;BME280;52163;52.212;-1.002;2022-07-17T07:29:19;101504.96;;;22.97;48.86
62952;BME280;52163;52.212;-1.002;2022-07-17T07:31:44;101500.66;;;23.04;48.63
62952;BME280;52163;52.212;-1.002;2022-07-17T07:34:10;101505.16;;;23.12;48.49
62952;BME280;52163;52.212;-1.002;2022-07-17T07:36:35;101506.26;;;23.21;48.32
62952;BME280;52163;52.212;-1.002;2022-07-17T07:39:01;101499.84;;;23.30;48.06
62952;BME280;52163;52.212;-1.002;2022-07-17T07:41:26;101501.30;;;23.37;47.60
62952;BME280;52163;52.212;-1.002;2022-07-17T07:43:51;101499.23;;;23.40;47.17
62952;BME280;52163;52.212;-1.002;2022-07-17T07:46:17;101505.02;;;23.38;46.67
62952;BME280;52163;52.212;-1.002;2022-07-17T07:48:42;101502.60;;;23.36;46.65
62952;BME280;52163;52.212;-1.002;2022-07-17T07:51:08;101497.30;;;23.41;47.03
62952;BME280;52163;52.212;-1.002;2022-07-17T07:53:34;101491.91;;;23.46;46.84
62952;BME280;52163;52.212;-1.002;2022-07-17T07:55:59;101494.39;;;23.52;46.45
62952;BME280;52163;52.212;-1.002;2022-07-17T07:58:25;101492.45;;;23.59;46.67
62952;BME280;52163;52.212;-1.002;2022-07-17T08:00:50;101496.42;;;23.64;46.37
62952;BME280;52163;52.212;-1.002;2022-07-17T08:03:16;101497.09;;;23.70;46.28
62952;BME280;52163;52.212;-1.002;2022-07-17T08:05:42;101496.01;;;23.75;46.09
62952;BME280;52163;52.212;-1.002;2022-07-17T08:08:08;101490.95;;;23.85;46.16
62952;BME280;52163;52.212;-1.002;2022-07-17T08:10:34;101494.48;;;23.94;45.94
62952;BME280;52163;52.212;-1.002;2022-07-17T08:12:59;101492.02;;;24.06;45.47
62952;BME280;52163;52.212;-1.002;2022-07-17T08:15:24;101487.13;;;24.26;45.63
62952;BME280;52163;52.212;-1.002;2022-07-17T08:17:51;101481.45;;;24.50;44.94
62952;BME280;52163;52.212;-1.002;2022-07-17T08:20:18;101479.80;;;24.76;44.44
62952;BME280;52163;52.212;-1.002;2022-07-17T08:22:45;101479.55;;;25.02;43.90
62952;BME280;52163;52.212;-1.002;2022-07-17T08:25:11;101477.80;;;25.22;43.54
62952;BME280;52163;52.212;-1.002;2022-07-17T08:27:41;101478.61;;;25.35;43.16
62952;BME280;52163;52.212;-1.002;2022-07-17T08:30:09;101487.15;;;25.36;42.85
62952;BME280;52163;52.212;-1.002;2022-07-17T08:32:36;101491.37;;;25.29;42.73
62952;BME280;52163;52.212;-1.002;2022-07-17T08:35:02;101496.48;;;25.27;42.43
62952;BME280;52163;52.212;-1.002;2022-07-17T08:37:27;101495.73;;;25.27;42.75
62952;BME280;52163;52.212;-1.002;2022-07-17T08:39:54;101498.18;;;25.28;42.56
62952;BME280;52163;52.212;-1.002;2022-07-17T08:42:20;101498.02;;;25.32;42.54
62952;BME280;52163;52.212;-1.002;2022-07-17T08:44:46;101495.73;;;25.37;42.27
62952;BME280;52163;52.212;-1.002;2022-07-17T08:47:12;101493.10;;;25.41;42.02
62952;BME280;52163;52.212;-1.002;2022-07-17T08:49:44;101483.67;;;25.52;41.94
62952;BME280;52163;52.212;-1.002;2022-07-17T08:52:12;101482.15;;;25.58;41.40
62952;BME280;52163;52.212;-1.002;2022-07-17T08:54:37;101486.39;;;25.62;41.10
62952;BME280;52163;52.212;-1.002;2022-07-17T08:57:03;101488.46;;;25.66;41.27
62952;BME280;52163;52.212;-1.002;2022-07-17T08:59:30;101481.75;;;25.73;41.59
62952;BME280;52163;52.212;-1.002;2022-07-17T09:01:55;101475.95;;;25.85;41.72
62952;BME280;52163;52.212;-1.002;2022-07-17T09:04:21;101472.98;;;25.98;41.48
62952;BME280;52163;52.212;-1.002;2022-07-17T09:06:58;101464.62;;;26.02;40.98
62952;BME280;52163;52.212;-1.002;2022-07-17T09:09:23;101460.73;;;25.93;40.63
62952;BME280;52163;52.212;-1.002;2022-07-17T09:11:50;101466.41;;;25.81;40.61
62952;BME280;52163;52.212;-1.002;2022-07-17T09:14:19;101464.07;;;25.69;40.67
62952;BME280;52163;52.212;-1.002;2022-07-17T09:16:56;101462.45;;;25.64;40.71
62952;BME280;52163;52.212;-1.002;2022-07-17T09:19:29;101466.22;;;25.66;40.82
62952;BME280;52163;52.212;-1.002;2022-07-17T09:22:05;101465.36;;;25.67;40.62
62952;BME280;52163;52.212;-1.002;2022-07-17T09:24:47;101467.50;;;25.71;40.45
62952;BME280;52163;52.212;-1.002;2022-07-17T09:27:27;101466.38;;;25.74;40.34
62952;BME280;52163;52.212;-1.002;2022-07-17T09:32:20;101460.07;;;25.89;40.39
62952;BME280;52163;52.212;-1.002;2022-07-17T09:34:50;101452.28;;;25.97;40.00
62952;BME280;52163;52.212;-1.002;2022-07-17T09:37:16;101455.21;;;26.06;39.92
62952;BME280;52163;52.212;-1.002;2022-07-17T09:39:42;101453.86;;;26.16;39.24
62952;BME280;52163;52.212;-1.002;2022-07-17T09:42:09;101455.45;;;26.26;39.18
62952;BME280;52163;52.212;-1.002;2022-07-17T09:44:34;101456.59;;;26.38;38.84
62952;BME280;52163;52.212;-1.002;2022-07-17T09:47:03;101452.54;;;26.52;38.56
62952;BME280;52163;52.212;-1.002;2022-07-17T09:49:28;101451.50;;;26.69;38.38
62952;BME280;52163;52.212;-1.002;2022-07-17T09:51:54;101450.16;;;26.85;37.76
62952;BME280;52163;52.212;-1.002;2022-07-17T09:54:23;101448.54;;;27.03;37.33
62952;BME280;52163;52.212;-1.002;2022-07-17T09:56:58;101448.64;;;27.27;37.28
62952;BME280;52163;52.212;-1.002;2022-07-17T09:59:26;101444.23;;;27.51;37.07
62952;BME280;52163;52.212;-1.002;2022-07-17T10:01:56;101443.85;;;27.65;36.90
62952;BME280;52163;52.212;-1.002;2022-07-17T10:04:24;101441.46;;;27.77;36.44
62952;BME280;52163;52.212;-1.002;2022-07-17T10:06:51;101437.27;;;27.91;35.91
62952;BME280;52163;52.212;-1.002;2022-07-17T10:09:17;101433.80;;;28.05;35.96
62952;BME280;52163;52.212;-1.002;2022-07-17T10:11:42;101436.34;;;28.19;35.80
62952;BME280;52163;52.212;-1.002;2022-07-17T10:14:10;101431.79;;;28.30;35.49
62952;BME280;52163;52.212;-1.002;2022-07-17T10:16:37;101427.02;;;28.39;35.02
62952;BME280;52163;52.212;-1.002;2022-07-17T10:19:15;101427.86;;;28.47;34.88
62952;BME280;52163;52.212;-1.002;2022-07-17T10:22:00;101430.23;;;28.51;34.48
62952;BME280;52163;52.212;-1.002;2022-07-17T10:24:29;101425.58;;;28.51;34.06
62952;BME280;52163;52.212;-1.002;2022-07-17T10:26:56;101418.17;;;28.49;34.27
62952;BME280;52163;52.212;-1.002;2022-07-17T10:29:36;101418.27;;;28.47;33.88
62952;BME280;52163;52.212;-1.002;2022-07-17T10:32:07;101418.81;;;28.41;33.41
62952;BME280;52163;52.212;-1.002;2022-07-17T10:40:25;101410.37;;;28.52;33.35
62952;BME280;52163;52.212;-1.002;2022-07-17T10:43:02;101410.15;;;28.68;33.38
62952;BME280;52163;52.212;-1.002;2022-07-17T10:45:43;101407.84;;;28.86;33.10
62952;BME280;52163;52.212;-1.002;2022-07-17T10:48:18;101407.11;;;28.92;32.62
62952;BME280;52163;52.212;-1.002;2022-07-17T10:50:48;101409.98;;;28.92;32.64
62952;BME280;52163;52.212;-1.002;2022-07-17T10:53:24;101405.92;;;28.94;32.46
62952;BME280;52163;52.212;-1.002;2022-07-17T10:56:00;101398.45;;;28.91;32.12
62952;BME280;52163;52.212;-1.002;2022-07-17T10:58:42;101404.90;;;28.92;32.41
62952;BME280;52163;52.212;-1.002;2022-07-17T11:01:15;101395.23;;;28.95;32.63
62952;BME280;52163;52.212;-1.002;2022-07-17T11:04:10;101392.66;;;29.01;32.69
62952;BME280;52163;52.212;-1.002;2022-07-17T11:06:39;101392.66;;;29.11;32.33
62952;BME280;52163;52.212;-1.002;2022-07-17T11:09:13;101385.68;;;29.22;32.12
62952;BME280;52163;52.212;-1.002;2022-07-17T11:11:44;101384.16;;;29.32;31.99
62952;BME280;52163;52.212;-1.002;2022-07-17T11:16:49;101375.83;;;29.68;32.21
62952;BME280;52163;52.212;-1.002;2022-07-17T11:19:35;101367.95;;;29.80;31.73
62952;BME280;52163;52.212;-1.002;2022-07-17T11:22:05;101366.44;;;29.90;31.02
62952;BME280;52163;52.212;-1.002;2022-07-17T11:24:44;101368.73;;;29.95;30.55
62952;BME280;52163;52.212;-1.002;2022-07-17T11:27:11;101374.05;;;29.99;30.62
62952;BME280;52163;52.212;-1.002;2022-07-17T11:29:40;101372.92;;;30.04;30.63
62952;BME280;52163;52.212;-1.002;2022-07-17T11:32:06;101376.55;;;30.08;30.49
62952;BME280;52163;52.212;-1.002;2022-07-17T11:34:32;101377.10;;;30.15;30.20
62952;BME280;52163;52.212;-1.002;2022-07-17T11:36:59;101381.73;;;30.28;30.51
62952;BME280;52163;52.212;-1.002;2022-07-17T11:39:25;101374.10;;;30.45;30.09
62952;BME280;52163;52.212;-1.002;2022-07-17T11:42:01;101372.45;;;30.59;29.73
62952;BME280;52163;52.212;-1.002;2022-07-17T11:44:27;101379.89;;;30.70;29.05
62952;BME280;52163;52.212;-1.002;2022-07-17T11:46:53;101380.52;;;30.84;29.11
62952;BME280;52163;52.212;-1.002;2022-07-17T11:49:28;101382.27;;;31.02;28.80
62952;BME280;52163;52.212;-1.002;2022-07-17T11:51:59;101383.79;;;31.21;28.50
62952;BME280;52163;52.212;-1.002;2022-07-17T11:54:26;101379.04;;;31.35;28.34
62952;BME280;52163;52.212;-1.002;2022-07-17T11:56:54;101377.52;;;31.42;28.29
62952;BME280;52163;52.212;-1.002;2022-07-17T11:59:26;101383.03;;;31.50;27.97
62952;BME280;52163;52.212;-1.002;2022-07-17T12:01:53;101375.65;;;31.57;28.09
62952;BME280;52163;52.212;-1.002;2022-07-17T12:04:19;101372.99;;;31.69;27.74
62952;BME280;52163;52.212;-1.002;2022-07-17T12:06:57;101369.88;;;31.83;27.91
62952;BME280;52163;52.212;-1.002;2022-07-17T12:09:27;101371.16;;;32.02;27.14
62952;BME280;52163;52.212;-1.002;2022-07-17T12:11:53;101370.92;;;32.13;26.69
62952;BME280;52163;52.212;-1.002;2022-07-17T12:14:19;101367.64;;;32.19;26.69
62952;BME280;52163;52.212;-1.002;2022-07-17T12:16:45;101368.71;;;32.26;26.71
62952;BME280;52163;52.212;-1.002;2022-07-17T12:19:16;101370.38;;;32.28;26.65
62952;BME280;52163;52.212;-1.002;2022-07-17T12:24:31;101365.35;;;32.24;26.67
62952;BME280;52163;52.212;-1.002;2022-07-17T12:27:02;101362.79;;;32.23;26.87
62952;BME280;52163;52.212;-1.002;2022-07-17T12:29:28;101358.02;;;32.22;26.84
62952;BME280;52163;52.212;-1.002;2022-07-17T12:34:37;101348.67;;;32.27;26.93
62952;BME280;52163;52.212;-1.002;2022-07-17T12:37:14;101346.71;;;32.27;26.82
62952;BME280;52163;52.212;-1.002;2022-07-17T12:39:40;101348.27;;;32.20;27.07
62952;BME280;52163;52.212;-1.002;2022-07-17T12:42:05;101339.62;;;32.11;27.39
62952;BME280;52163;52.212;-1.002;2022-07-17T12:44:31;101341.01;;;32.06;27.55
62952;BME280;52163;52.212;-1.002;2022-07-17T12:46:59;101341.88;;;32.00;27.38
62952;BME280;52163;52.212;-1.002;2022-07-17T12:49:25;101335.45;;;31.96;27.16
62952;BME280;52163;52.212;-1.002;2022-07-17T12:51:52;101340.73;;;31.90;26.92
62952;BME280;52163;52.212;-1.002;2022-07-17T12:54:19;101341.09;;;31.87;27.32
62952;BME280;52163;52.212;-1.002;2022-07-17T12:56:45;101340.98;;;31.89;27.35